sensor_id;sensor_type;location;lat;lon;timestamp;temperature;humidity
19610;DHT22;9952;47.122;-1.638;2024-03-07T00:01:36;7.10;99.90
19610;DHT22;9952;47.122;-1.638;2024-03-07T00:06:17;7.00;99.90
19610;DHT22;9952;47.122;-1.638;2024-03-07T00:10:58;7.00;99.90
19610;DHT22;9952;47.122;-1.638;2024-03-07T00:15:38;7.00;99.90
19610;DHT22;9952;47.122;-1.638;2024-03-07T00:20:20;6.90;99.90
19610;DHT22;9952;47.122;-1.638;2024-03-07T00:25:02;7.00;99.90
19610;DHT22;9952;47.122;-1.638;2024-03-07T00:29:45;6.90;99.90
19610;DHT22;9952;47.122;-1.638;2024-03-07T00:34:33;6.90;99.90
19610;DHT22;9952;47.122;-1.638;2024-03-07T00:39:14;6.90;99.90
19610;DHT22;9952;47.122;-1.638;2024-03-07T00:43:54;6.80;99.90
19610;DHT22;9952;47.122;-1.638;2024-03-07T00:48:35;6.80;99.90
19610;DHT22;9952;47.122;-1.638;2024-03-07T00:53:16;6.80;99.90
19610;DHT22;9952;47.122;-1.638;2024-03-07T00:57:56;6.70;99.90
19610;DHT22;9952;47.122;-1.638;2024-03-07T01:02:37;6.70;99.90
19610;DHT22;9952;47.122;-1.638;2024-03-07T01:07:19;6.70;99.90
19610;DHT22;9952;47.122;-1.638;2024-03-07T01:11:59;6.70;99.90
19610;DHT22;9952;47.122;-1.638;2024-03-07T01:16:40;6.70;99.90
19610;DHT22;9952;47.122;-1.638;2024-03-07T01:21:21;6.60;99.90
19610;DHT22;9952;47.122;-1.638;2024-03-07T01:26:02;6.60;99.90
19610;DHT22;9952;47.122;-1.638;2024-03-07T01:30:43;6.60;99.90
19610;DHT22;9952;47.122;-1.638;2024-03-07T01:35:23;6.60;99.90
19610;DHT22;9952;47.122;-1.638;2024-03-07T01:40:04;6.60;99.90
19610;DHT22;9952;47.122;-1.638;2024-03-07T01:44:45;6.60;99.90
19610;DHT22;9952;47.122;-1.638;2024-03-07T01:49:26;6.70;99.90
19610;DHT22;9952;47.122;-1.638;2024-03-07T01:54:08;6.60;99.90
19610;DHT22;9952;47.122;-1.638;2024-03-07T01:58:52;6.60;99.90
19610;DHT22;9952;47.122;-1.638;2024-03-07T02:03:33;6.60;99.90
19610;DHT22;9952;47.122;-1.638;2024-03-07T02:08:17;6.70;99.90
19610;DHT22;9952;47.122;-1.638;2024-03-07T02:12:57;6.60;99.90
19610;DHT22;9952;47.122;-1.638;2024-03-07T02:17:38;6.60;99.90
19610;DHT22;9952;47.122;-1.638;2024-03-07T02:22:19;6.60;99.90
19610;DHT22;9952;47.122;-1.638;2024-03-07T02:27:00;6.50;99.90
19610;DHT22;9952;47.122;-1.638;2024-03-07T02:31:41;6.40;99.90
19610;DHT22;9952;47.122;-1.638;2024-03-07T02:36:21;6.40;99.90
19610;DHT22;9952;47.122;-1.638;2024-03-07T02:41:03;6.40;99.90
19610;DHT22;9952;47.122;-1.638;2024-03-07T02:45:43;6.40;99.90
19610;DHT22;9952;47.122;-1.638;2024-03-07T02:50:24;6.30;99.90
19610;DHT22;9952;47.122;-1.638;2024-03-07T02:55:05;6.30;99.90
19610;DHT22;9952;47.122;-1.638;2024-03-07T02:59:46;6.30;99.90
19610;DHT22;9952;47.122;-1.638;2024-03-07T03:04:27;6.30;99.90
19610;DHT22;9952;47.122;-1.638;2024-03-07T03:09:07;6.20;99.90
19610;DHT22;9952;47.122;-1.638;2024-03-07T03:13:53;6.20;99.90
19610;DHT22;9952;47.122;-1.638;2024-03-07T03:18:34;6.20;99.90
19610;DHT22;9952;47.122;-1.638;2024-03-07T03:23:15;6.10;99.90
19610;DHT22;9952;47.122;-1.638;2024-03-07T03:27:55;6.00;99.90
19610;DHT22;9952;47.122;-1.638;2024-03-07T03:32:36;5.90;99.90
19610;DHT22;9952;47.122;-1.638;2024-03-07T03:37:17;5.90;99.90
19610;DHT22;9952;47.122;-1.638;2024-03-07T03:41:57;5.90;99.90
19610;DHT22;9952;47.122;-1.638;2024-03-07T03:46:38;5.80;99.90
19610;DHT22;9952;47.122;-1.638;2024-03-07T03:51:19;5.70;99.90
19610;DHT22;9952;47.122;-1.638;2024-03-07T03:56:02;5.70;99.90
19610;DHT22;9952;47.122;-1.638;2024-03-07T04:00:44;5.60;99.90
19610;DHT22;9952;47.122;-1.638;2024-03-07T04:05:25;5.60;99.90
19610;DHT22;9952;47.122;-1.638;2024-03-07T04:10:06;5.60;99.90
19610;DHT22;9952;47.122;-1.638;2024-03-07T04:14:50;5.50;99.90
19610;DHT22;9952;47.122;-1.638;2024-03-07T04:19:30;5.50;99.90
19610;DHT22;9952;47.122;-1.638;2024-03-07T04:24:13;5.40;99.90
19610;DHT22;9952;47.122;-1.638;2024-03-07T04:28:54;5.50;99.90
19610;DHT22;9952;47.122;-1.638;2024-03-07T04:33:34;5.30;99.90
19610;DHT22;9952;47.122;-1.638;2024-03-07T04:38:15;5.30;99.90
19610;DHT22;9952;47.122;-1.638;2024-03-07T04:42:55;5.20;99.90
19610;DHT22;9952;47.122;-1.638;2024-03-07T04:47:37;5.20;99.90
19610;DHT22;9952;47.122;-1.638;2024-03-07T04:52:17;5.10;99.90
19610;DHT22;9952;47.122;-1.638;2024-03-07T04:56:58;5.20;99.90
19610;DHT22;9952;47.122;-1.638;2024-03-07T05:01:39;5.20;99.90
19610;DHT22;9952;47.122;-1.638;2024-03-07T05:06:20;5.10;99.90
19610;DHT22;9952;47.122;-1.638;2024-03-07T05:11:01;5.10;99.90
19610;DHT22;9952;47.122;-1.638;2024-03-07T05:15:42;5.10;99.90
19610;DHT22;9952;47.122;-1.638;2024-03-07T05:20:22;5.20;99.90
19610;DHT22;9952;47.122;-1.638;2024-03-07T05:25:03;5.10;99.90
19610;DHT22;9952;47.122;-1.638;2024-03-07T05:29:46;5.20;99.90
19610;DHT22;9952;47.122;-1.638;2024-03-07T05:34:26;5.10;99.90
19610;DHT22;9952;47.122;-1.638;2024-03-07T05:39:08;5.10;99.90
19610;DHT22;9952;47.122;-1.638;2024-03-07T05:43:51;5.10;99.90
19610;DHT22;9952;47.122;-1.638;2024-03-07T05:48:31;5.00;99.90
19610;DHT22;9952;47.122;-1.638;2024-03-07T05:53:12;5.00;99.90
19610;DHT22;9952;47.122;-1.638;2024-03-07T05:57:53;5.10;99.90
19610;DHT22;9952;47.122;-1.638;2024-03-07T06:02:33;5.10;99.90
19610;DHT22;9952;47.122;-1.638;2024-03-07T06:07:14;5.00;99.90
19610;DHT22;9952;47.122;-1.638;2024-03-07T06:11:55;5.10;99.90
19610;DHT22;9952;47.122;-1.638;2024-03-07T06:16:37;5.00;99.90
19610;DHT22;9952;47.122;-1.638;2024-03-07T06:21:18;5.00;99.90
19610;DHT22;9952;47.122;-1.638;2024-03-07T06:25:59;5.00;99.90
19610;DHT22;9952;47.122;-1.638;2024-03-07T06:30:42;5.10;99.90
19610;DHT22;9952;47.122;-1.638;2024-03-07T06:35:25;5.10;99.90
19610;DHT22;9952;47.122;-1.638;2024-03-07T06:40:07;5.00;99.90
19610;DHT22;9952;47.122;-1.638;2024-03-07T06:44:50;5.00;99.90
19610;DHT22;9952;47.122;-1.638;2024-03-07T06:49:30;4.90;99.90
19610;DHT22;9952;47.122;-1.638;2024-03-07T06:54:12;4.90;99.90
19610;DHT22;9952;47.122;-1.638;2024-03-07T06:58:52;4.90;99.90
19610;DHT22;9952;47.122;-1.638;2024-03-07T07:03:33;5.00;99.90
19610;DHT22;9952;47.122;-1.638;2024-03-07T07:08:16;5.10;99.90
19610;DHT22;9952;47.122;-1.638;2024-03-07T07:12:56;5.30;99.90
19610;DHT22;9952;47.122;-1.638;2024-03-07T07:17:37;5.60;99.90
19610;DHT22;9952;47.122;-1.638;2024-03-07T07:22:18;5.90;99.90
19610;DHT22;9952;47.122;-1.638;2024-03-07T07:26:58;6.20;99.90
19610;DHT22;9952;47.122;-1.638;2024-03-07T07:31:39;6.40;99.90
19610;DHT22;9952;47.122;-1.638;2024-03-07T07:36:20;7.10;99.90
19610;DHT22;9952;47.122;-1.638;2024-03-07T07:41:01;8.10;99.90
19610;DHT22;9952;47.122;-1.638;2024-03-07T07:45:41;8.90;99.90
19610;DHT22;9952;47.122;-1.638;2024-03-07T07:50:23;9.60;99.90
19610;DHT22;9952;47.122;-1.638;2024-03-07T07:55:04;10.30;99.90
19610;DHT22;9952;47.122;-1.638;2024-03-07T07:59:45;10.40;99.90
19610;DHT22;9952;47.122;-1.638;2024-03-07T08:04:26;10.40;99.90
19610;DHT22;9952;47.122;-1.638;2024-03-07T08:09:07;10.10;99.90
19610;DHT22;9952;47.122;-1.638;2024-03-07T08:13:50;9.90;99.90
19610;DHT22;9952;47.122;-1.638;2024-03-07T08:18:31;9.40;99.90
19610;DHT22;9952;47.122;-1.638;2024-03-07T08:23:11;9.10;99.90
19610;DHT22;9952;47.122;-1.638;2024-03-07T08:27:56;8.80;99.90
19610;DHT22;9952;47.122;-1.638;2024-03-07T08:32:39;8.50;99.90
19610;DHT22;9952;47.122;-1.638;2024-03-07T08:37:19;8.30;99.90
19610;DHT22;9952;47.122;-1.638;2024-03-07T08:42:01;8.20;99.90
19610;DHT22;9952;47.122;-1.638;2024-03-07T08:46:42;8.30;99.90
19610;DHT22;9952;47.122;-1.638;2024-03-07T08:51:24;8.40;99.90
19610;DHT22;9952;47.122;-1.638;2024-03-07T08:56:04;8.80;99.90
19610;DHT22;9952;47.122;-1.638;2024-03-07T09:00:45;9.50;99.90
19610;DHT22;9952;47.122;-1.638;2024-03-07T09:05:26;10.10;99.90
19610;DHT22;9952;47.122;-1.638;2024-03-07T09:10:07;10.20;99.90
19610;DHT22;9952;47.122;-1.638;2024-03-07T09:14:49;10.50;99.90
19610;DHT22;9952;47.122;-1.638;2024-03-07T09:19:31;10.80;99.90
19610;DHT22;9952;47.122;-1.638;2024-03-07T09:24:12;10.90;99.90
19610;DHT22;9952;47.122;-1.638;2024-03-07T09:28:55;11.00;99.90
19610;DHT22;9952;47.122;-1.638;2024-03-07T09:33:36;11.30;99.90
19610;DHT22;9952;47.122;-1.638;2024-03-07T09:38:18;11.30;99.90
19610;DHT22;9952;47.122;-1.638;2024-03-07T09:43:00;11.60;99.90
19610;DHT22;9952;47.122;-1.638;2024-03-07T09:47:41;11.60;99.90
19610;DHT22;9952;47.122;-1.638;2024-03-07T09:52:24;11.40;99.90
19610;DHT22;9952;47.122;-1.638;2024-03-07T09:57:06;11.40;99.90
19610;DHT22;9952;47.122;-1.638;2024-03-07T10:01:51;11.30;99.90
19610;DHT22;9952;47.122;-1.638;2024-03-07T10:06:34;11.30;99.90
19610;DHT22;9952;47.122;-1.638;2024-03-07T10:11:15;11.20;99.90
19610;DHT22;9952;47.122;-1.638;2024-03-07T10:15:59;11.20;99.90
19610;DHT22;9952;47.122;-1.638;2024-03-07T10:20:42;11.20;99.90
19610;DHT22;9952;47.122;-1.638;2024-03-07T10:25:25;11.20;99.90
19610;DHT22;9952;47.122;-1.638;2024-03-07T10:30:08;11.40;99.90
19610;DHT22;9952;47.122;-1.638;2024-03-07T10:34:52;11.60;99.90
19610;DHT22;9952;47.122;-1.638;2024-03-07T10:39:33;11.80;99.90
19610;DHT22;9952;47.122;-1.638;2024-03-07T10:44:34;11.80;99.90
19610;DHT22;9952;47.122;-1.638;2024-03-07T10:49:22;12.00;99.90
19610;DHT22;9952;47.122;-1.638;2024-03-07T10:54:29;12.20;99.90
19610;DHT22;9952;47.122;-1.638;2024-03-07T10:59:20;12.50;99.90
19610;DHT22;9952;47.122;-1.638;2024-03-07T11:04:01;12.60;99.90
19610;DHT22;9952;47.122;-1.638;2024-03-07T11:08:46;12.50;99.90
19610;DHT22;9952;47.122;-1.638;2024-03-07T11:13:28;12.70;99.90
19610;DHT22;9952;47.122;-1.638;2024-03-07T11:18:10;12.90;99.90
19610;DHT22;9952;47.122;-1.638;2024-03-07T11:22:53;13.30;99.90
19610;DHT22;9952;47.122;-1.638;2024-03-07T11:27:37;13.40;99.90
19610;DHT22;9952;47.122;-1.638;2024-03-07T11:32:20;13.50;99.90
19610;DHT22;9952;47.122;-1.638;2024-03-07T11:37:03;13.60;99.90
19610;DHT22;9952;47.122;-1.638;2024-03-07T11:41:48;13.80;99.90
19610;DHT22;9952;47.122;-1.638;2024-03-07T11:46:31;14.10;99.90
19610;DHT22;9952;47.122;-1.638;2024-03-07T11:51:13;14.20;99.90
19610;DHT22;9952;47.122;-1.638;2024-03-07T11:55:54;14.10;99.90
19610;DHT22;9952;47.122;-1.638;2024-03-07T12:00:35;14.20;99.90
19610;DHT22;9952;47.122;-1.638;2024-03-07T12:05:16;14.60;99.90
19610;DHT22;9952;47.122;-1.638;2024-03-07T12:09:57;14.60;99.90
19610;DHT22;9952;47.122;-1.638;2024-03-07T12:14:38;14.50;99.90
19610;DHT22;9952;47.122;-1.638;2024-03-07T12:19:19;14.40;99.90
19610;DHT22;9952;47.122;-1.638;2024-03-07T12:24:00;14.50;99.90
19610;DHT22;9952;47.122;-1.638;2024-03-07T12:28:50;14.40;99.90
19610;DHT22;9952;47.122;-1.638;2024-03-07T12:33:33;14.30;99.90
19610;DHT22;9952;47.122;-1.638;2024-03-07T12:38:20;14.30;99.90
19610;DHT22;9952;47.122;-1.638;2024-03-07T12:43:17;14.60;99.90
19610;DHT22;9952;47.122;-1.638;2024-03-07T12:47:59;14.40;99.90
19610;DHT22;9952;47.122;-1.638;2024-03-07T12:52:44;14.40;99.90
19610;DHT22;9952;47.122;-1.638;2024-03-07T12:57:26;14.20;99.90
19610;DHT22;9952;47.122;-1.638;2024-03-07T13:02:08;14.00;99.90
19610;DHT22;9952;47.122;-1.638;2024-03-07T13:06:49;14.00;99.90
19610;DHT22;9952;47.122;-1.638;2024-03-07T13:11:29;14.10;99.90
19610;DHT22;9952;47.122;-1.638;2024-03-07T13:16:12;14.20;99.90
19610;DHT22;9952;47.122;-1.638;2024-03-07T13:20:53;14.30;99.90
19610;DHT22;9952;47.122;-1.638;2024-03-07T13:25:33;14.30;99.90
19610;DHT22;9952;47.122;-1.638;2024-03-07T13:30:14;14.30;99.90
19610;DHT22;9952;47.122;-1.638;2024-03-07T13:35:02;14.40;99.90
19610;DHT22;9952;47.122;-1.638;2024-03-07T13:39:43;14.60;99.90
19610;DHT22;9952;47.122;-1.638;2024-03-07T13:44:26;14.60;99.90
19610;DHT22;9952;47.122;-1.638;2024-03-07T13:49:08;14.40;99.90
19610;DHT22;9952;47.122;-1.638;2024-03-07T13:53:54;14.40;99.90
19610;DHT22;9952;47.122;-1.638;2024-03-07T14:14:18;15.00;99.90
19610;DHT22;9952;47.122;-1.638;2024-03-07T14:40:12;15.10;99.90
19610;DHT22;9952;47.122;-1.638;2024-03-07T14:44:54;15.00;99.90
19610;DHT22;9952;47.122;-1.638;2024-03-07T14:49:35;15.00;99.90
19610;DHT22;9952;47.122;-1.638;2024-03-07T14:54:16;15.00;99.90
19610;DHT22;9952;47.122;-1.638;2024-03-07T14:58:57;14.90;99.90
19610;DHT22;9952;47.122;-1.638;2024-03-07T15:03:38;14.80;99.90
19610;DHT22;9952;47.122;-1.638;2024-03-07T15:08:20;14.70;99.90
19610;DHT22;9952;47.122;-1.638;2024-03-07T15:13:03;14.70;99.90
19610;DHT22;9952;47.122;-1.638;2024-03-07T15:17:45;14.60;99.90
19610;DHT22;9952;47.122;-1.638;2024-03-07T15:22:25;14.50;99.90
19610;DHT22;9952;47.122;-1.638;2024-03-07T15:27:06;14.50;99.90
19610;DHT22;9952;47.122;-1.638;2024-03-07T15:31:47;14.50;99.90
19610;DHT22;9952;47.122;-1.638;2024-03-07T15:36:28;14.80;99.90
19610;DHT22;9952;47.122;-1.638;2024-03-07T15:41:09;15.10;99.90
19610;DHT22;9952;47.122;-1.638;2024-03-07T15:45:52;15.30;99.90
19610;DHT22;9952;47.122;-1.638;2024-03-07T15:50:32;15.20;99.90
19610;DHT22;9952;47.122;-1.638;2024-03-07T15:55:13;15.10;99.90
19610;DHT22;9952;47.122;-1.638;2024-03-07T15:59:55;14.70;99.90
19610;DHT22;9952;47.122;-1.638;2024-03-07T16:04:36;14.40;99.90
19610;DHT22;9952;47.122;-1.638;2024-03-07T16:09:17;14.20;99.90
19610;DHT22;9952;47.122;-1.638;2024-03-07T16:14:02;14.10;99.90
19610;DHT22;9952;47.122;-1.638;2024-03-07T16:18:43;14.00;99.90
19610;DHT22;9952;47.122;-1.638;2024-03-07T16:23:24;14.10;99.90
19610;DHT22;9952;47.122;-1.638;2024-03-07T16:28:08;14.10;99.90
19610;DHT22;9952;47.122;-1.638;2024-03-07T16:32:52;14.00;99.90
19610;DHT22;9952;47.122;-1.638;2024-03-07T16:37:44;14.00;99.90
19610;DHT22;9952;47.122;-1.638;2024-03-07T16:42:25;13.90;99.90
19610;DHT22;9952;47.122;-1.638;2024-03-07T16:47:05;13.70;99.90
19610;DHT22;9952;47.122;-1.638;2024-03-07T16:51:50;13.60;99.90
19610;DHT22;9952;47.122;-1.638;2024-03-07T16:56:36;13.40;99.90
19610;DHT22;9952;47.122;-1.638;2024-03-07T17:01:17;13.30;99.90
19610;DHT22;9952;47.122;-1.638;2024-03-07T17:05:58;13.10;99.90
19610;DHT22;9952;47.122;-1.638;2024-03-07T17:10:41;13.10;99.90
19610;DHT22;9952;47.122;-1.638;2024-03-07T17:15:22;13.00;99.90
19610;DHT22;9952;47.122;-1.638;2024-03-07T17:20:03;12.90;99.90
19610;DHT22;9952;47.122;-1.638;2024-03-07T17:24:44;12.80;99.90
19610;DHT22;9952;47.122;-1.638;2024-03-07T17:29:26;12.70;99.90
19610;DHT22;9952;47.122;-1.638;2024-03-07T17:34:07;12.60;99.90
19610;DHT22;9952;47.122;-1.638;2024-03-07T17:38:48;12.60;99.90
19610;DHT22;9952;47.122;-1.638;2024-03-07T17:43:29;12.40;99.90
19610;DHT22;9952;47.122;-1.638;2024-03-07T17:48:09;12.40;99.90
19610;DHT22;9952;47.122;-1.638;2024-03-07T17:52:55;12.30;99.90
19610;DHT22;9952;47.122;-1.638;2024-03-07T17:57:45;12.20;99.90
19610;DHT22;9952;47.122;-1.638;2024-03-07T18:02:26;12.10;99.90
19610;DHT22;9952;47.122;-1.638;2024-03-07T18:07:09;12.00;99.90
19610;DHT22;9952;47.122;-1.638;2024-03-07T18:11:50;11.90;99.90
19610;DHT22;9952;47.122;-1.638;2024-03-07T18:16:30;11.90;99.90
19610;DHT22;9952;47.122;-1.638;2024-03-07T18:21:12;11.70;99.90
19610;DHT22;9952;47.122;-1.638;2024-03-07T18:25:53;11.70;99.90
19610;DHT22;9952;47.122;-1.638;2024-03-07T18:30:35;11.70;99.90
19610;DHT22;9952;47.122;-1.638;2024-03-07T18:35:16;11.60;99.90
19610;DHT22;9952;47.122;-1.638;2024-03-07T18:39:56;11.50;99.90
19610;DHT22;9952;47.122;-1.638;2024-03-07T18:44:38;11.50;99.90
19610;DHT22;9952;47.122;-1.638;2024-03-07T18:49:19;11.40;99.90
19610;DHT22;9952;47.122;-1.638;2024-03-07T18:54:00;11.30;99.90
19610;DHT22;9952;47.122;-1.638;2024-03-07T18:58:40;11.30;99.90
19610;DHT22;9952;47.122;-1.638;2024-03-07T19:03:25;11.30;99.90
19610;DHT22;9952;47.122;-1.638;2024-03-07T19:08:09;11.30;99.90
19610;DHT22;9952;47.122;-1.638;2024-03-07T19:12:59;11.20;99.90
19610;DHT22;9952;47.122;-1.638;2024-03-07T19:17:40;11.20;99.90
19610;DHT22;9952;47.122;-1.638;2024-03-07T19:22:20;11.10;99.90
19610;DHT22;9952;47.122;-1.638;2024-03-07T19:27:01;11.10;99.90
19610;DHT22;9952;47.122;-1.638;2024-03-07T19:31:48;11.00;99.90
19610;DHT22;9952;47.122;-1.638;2024-03-07T19:36:29;10.90;99.90
19610;DHT22;9952;47.122;-1.638;2024-03-07T19:41:10;11.00;99.90
19610;DHT22;9952;47.122;-1.638;2024-03-07T19:45:52;11.00;99.90
19610;DHT22;9952;47.122;-1.638;2024-03-07T19:50:33;11.00;99.90
19610;DHT22;9952;47.122;-1.638;2024-03-07T19:55:14;11.10;99.90
19610;DHT22;9952;47.122;-1.638;2024-03-07T19:59:58;11.10;99.90
19610;DHT22;9952;47.122;-1.638;2024-03-07T20:04:39;11.10;99.90
19610;DHT22;9952;47.122;-1.638;2024-03-07T20:09:20;11.10;99.90
19610;DHT22;9952;47.122;-1.638;2024-03-07T20:14:01;11.10;99.90
19610;DHT22;9952;47.122;-1.638;2024-03-07T20:18:41;11.10;99.90
19610;DHT22;9952;47.122;-1.638;2024-03-07T20:23:24;11.00;99.90
19610;DHT22;9952;47.122;-1.638;2024-03-07T20:28:07;10.90;99.90
19610;DHT22;9952;47.122;-1.638;2024-03-07T20:32:49;10.80;99.90
19610;DHT22;9952;47.122;-1.638;2024-03-07T20:37:29;10.90;99.90
19610;DHT22;9952;47.122;-1.638;2024-03-07T20:42:10;10.90;99.90
19610;DHT22;9952;47.122;-1.638;2024-03-07T20:46:51;10.80;99.90
19610;DHT22;9952;47.122;-1.638;2024-03-07T20:51:33;10.80;99.90
19610;DHT22;9952;47.122;-1.638;2024-03-07T20:56:20;10.80;99.90
19610;DHT22;9952;47.122;-1.638;2024-03-07T21:01:00;10.80;99.90
19610;DHT22;9952;47.122;-1.638;2024-03-07T21:05:41;10.80;99.90
19610;DHT22;9952;47.122;-1.638;2024-03-07T21:10:24;10.80;99.90
19610;DHT22;9952;47.122;-1.638;2024-03-07T21:15:09;10.80;99.90
19610;DHT22;9952;47.122;-1.638;2024-03-07T21:19:50;10.60;99.90
19610;DHT22;9952;47.122;-1.638;2024-03-07T21:24:30;10.70;99.90
19610;DHT22;9952;47.122;-1.638;2024-03-07T21:29:11;10.60;99.90
19610;DHT22;9952;47.122;-1.638;2024-03-07T21:33:53;10.60;99.90
19610;DHT22;9952;47.122;-1.638;2024-03-07T21:38:34;10.70;99.90
19610;DHT22;9952;47.122;-1.638;2024-03-07T21:43:15;10.60;99.90
19610;DHT22;9952;47.122;-1.638;2024-03-07T21:47:56;10.60;99.90
19610;DHT22;9952;47.122;-1.638;2024-03-07T21:52:38;10.60;99.90
19610;DHT22;9952;47.122;-1.638;2024-03-07T21:57:20;10.50;99.90
19610;DHT22;9952;47.122;-1.638;2024-03-07T22:02:02;10.50;99.90
19610;DHT22;9952;47.122;-1.638;2024-03-07T22:06:43;10.40;99.90
19610;DHT22;9952;47.122;-1.638;2024-03-07T22:11:25;10.40;99.90
19610;DHT22;9952;47.122;-1.638;2024-03-07T22:16:08;10.40;99.90
19610;DHT22;9952;47.122;-1.638;2024-03-07T22:20:49;10.40;99.90
19610;DHT22;9952;47.122;-1.638;2024-03-07T22:25:30;10.30;99.90
19610;DHT22;9952;47.122;-1.638;2024-03-07T22:30:11;10.20;99.90
19610;DHT22;9952;47.122;-1.638;2024-03-07T22:34:56;10.20;99.90
19610;DHT22;9952;47.122;-1.638;2024-03-07T22:39:37;10.20;99.90
19610;DHT22;9952;47.122;-1.638;2024-03-07T22:44:18;10.10;99.90
19610;DHT22;9952;47.122;-1.638;2024-03-07T22:48:58;10.00;99.90
19610;DHT22;9952;47.122;-1.638;2024-03-07T22:53:39;10.00;99.90
19610;DHT22;9952;47.122;-1.638;2024-03-07T22:58:20;9.90;99.90
19610;DHT22;9952;47.122;-1.638;2024-03-07T23:03:01;9.90;99.90
19610;DHT22;9952;47.122;-1.638;2024-03-07T23:07:44;9.90;99.90
19610;DHT22;9952;47.122;-1.638;2024-03-07T23:12:25;9.90;99.90
19610;DHT22;9952;47.122;-1.638;2024-03-07T23:17:06;9.80;99.90
19610;DHT22;9952;47.122;-1.638;2024-03-07T23:21:48;9.80;99.90
19610;DHT22;9952;47.122;-1.638;2024-03-07T23:26:29;9.70;99.90
19610;DHT22;9952;47.122;-1.638;2024-03-07T23:31:10;9.70;99.90
19610;DHT22;9952;47.122;-1.638;2024-03-07T23:35:50;9.70;99.90
19610;DHT22;9952;47.122;-1.638;2024-03-07T23:40:31;9.60;99.90
19610;DHT22;9952;47.122;-1.638;2024-03-07T23:45:13;9.70;99.90
19610;DHT22;9952;47.122;-1.638;2024-03-07T23:49:54;9.70;99.90
19610;DHT22;9952;47.122;-1.638;2024-03-07T23:54:35;9.70;99.90
19610;DHT22;9952;47.122;-1.638;2024-03-07T23:59:16;9.60;99.90
